Portsmouth, Rhode Island
Current Conditions -  °F | °C
As of 5:04 PM on Monday 26 Jan 2015 (Local Time) from KUUU Reporting Station
Light Snow Light Snow  
Wind Chill: -8°   Ceiling: 1300
Heat Index: -2°   Visibility: 2.5mi
Dew Point: -3°   Wind: 15mph
Humidity: 89%   Direction: 40°NE
Pressure: 29.94"   Gusts: 22mph
Location:  41.6°N, 71.25°W
Report Text: KUUU 262204Z AUTO 04013G19KT 2 1/2SM -SN BR BKN013 OVC025 M02/M03 A2994 RMK AO2 P0000 T10171033
Loading
Personal Weather Stations






























Interactive Weather Map New forecast layout! Learn more

10-Day Weather Forecast

Advertisements
Track Severe Weather on mobile